Kenansville, NC

5:37 PM EDT on September 01, 2014 (GMT -0400)
Duplin County | Change Station
CLOSE
Current Station
Airport
Location: Kenansville,
Elevation: 138 ft
Nearby Weather Stations

Elev 138 ft 35.00 °N, 77.98 °W | Updated 22 minutes ago

Clear
Clear
91 °F
Feels Like 96 °F
N
4
Wind Variable Wind from SSE

Today
High -- | Low -- °F
--% Chance of Precip.
Yesterday
High -- | Low -- °F
Precip. -- in
6:44 AM 7:38 PM
Waxing Crescent, 44% visible
Pressure 30.03 in
Visibility 10.0 miles
Clouds Clear
Heat Index 96 °F
Dew Point 69 °F
Humidity 49%
Rainfall 0.00 in
Snow Depth Not available.
UV 3 out of 12
Pollen 8.70 out of 12
Air Quality Not available.
Flu Activity Not available.
METAR KDPL 012115Z AUTO 16003KT 10SM CLR 33/21 A3003 RMK AO2 T03290208

More Conditions Fewer Conditions

Pressure 30.03 in
Visibility 10.0 miles
Clouds Clear
Heat Index 96 °F
Dew Point 69 °F
Humidity 49%
Rainfall 0.00 in
Snow Depth Not available.
UV 3 out of 12
Pollen 8.70 out of 12
Air Quality Not available.
Flu Activity Not available.
METAR KDPL 012115Z AUTO 16003KT 10SM CLR 33/21 A3003 RMK AO2 T03290208

More Conditions Fewer Conditions

10-Day Weather Forecast

Almanac

Astronomy

Sep. 01, 2014 Rise Set
Actual Time 6:44 AM EDT 7:38 PM EDT
Civil Twilight 6:18 AM EDT 8:04 PM EDT
Nautical Twilight 5:48 AM EDT 8:34 PM EDT
Astronomical Twilight 5:16 AM EDT 9:06 PM EDT
Moon 1:12 PM EDT 11:53 PM EDT
Length of Visible Light 13h 45m
Length of Day
12h 53m
Tomorrow will be 2m 5s shorter.
Waxing Crescent, 44% of the Moon is Illuminated
Today
Waxing Crescent
Sep 2
First Quarter
Sep 8
Full
Sep 15
Last Quarter
Sep 24
New

Today's Extremes

State Highs State Lows

Community

WunderPhotos

Upload Photos

1,749,416 photos uploaded!

WunderBlogs® & News

Nearby

Snow Depth

Station Depth Elevation
No new snow has been reported.

Earthquake Activity

City Distance Mag. Time & Date
No recent earthquake activity has been reported nearby.
Minimum magnitude displayed is 2.5.

Coastal Water Temperatures

Place Temperature
No Stations Reporting

Nearby Weather Stations